Plummer, Minnesota
Current Conditions -  °F | °C
As of 6:15 PM on Friday 24 Oct 2014 (Local Time) from KTVF Reporting Station
Clear Clear  
Wind Chill: 64°   Ceiling: Unl
Heat Index: 64°   Visibility: 10mi
Dew Point: 36°   Wind: 18mph
Humidity: 34%   Direction: 260°W
Pressure: 29.77"   Gusts: 24mph
Location:  47.91°N, 96.04°W
Report Text: KTVF 242315Z AUTO 26016G21KT 10SM CLR 18/02 A2977 RMK AO1
Loading
Personal Weather Stations






























Interactive Weather Map
Tropical Storm Tracking
New forecast layout! Learn more

10-Day Weather Forecast

Advertisements
Track Severe Weather on mobile